Terminal Aerodrome Forecast
Issued by NWS

Home | Current Version | Previous Version | Text Only | Print | Product List | Glossary On
Versions: 1 2 3 4 5 6 7 8 9 10 11 12 13 14 15 16 17 18 19 20 21 22 23 24 25
000
FTUS41 KGYX 191125
TAFMHT
TAF
KMHT 191125Z 1912/2012 03003KT P6SM OVC005
     FM191300 VRB03KT P6SM OVC008
     FM191600 24008KT P6SM SCT040
     FM200000 27003KT P6SM SCT120=

USA.gov is the U.S. government's official web portal to all federal, state and local government web resources and services.